createdAt,value
2023-05-18T00:01:20.891Z,9.00
2023-05-18T00:03:48.649Z,9.40
2023-05-18T00:06:19.463Z,10.20
2023-05-18T00:08:46.832Z,10.10
2023-05-18T00:11:14.297Z,10.60
2023-05-18T00:13:42.033Z,10.70
2023-05-18T00:16:09.194Z,9.70
2023-05-18T00:18:37.170Z,9.40
2023-05-18T00:21:04.852Z,8.00
2023-05-18T00:23:32.092Z,7.50
2023-05-18T00:26:00.115Z,9.10
2023-05-18T00:28:27.365Z,9.70
2023-05-18T00:30:54.860Z,10.50
2023-05-18T00:33:22.739Z,8.00
2023-05-18T00:35:50.824Z,7.40
2023-05-18T00:38:18.235Z,8.50
2023-05-18T00:40:45.529Z,8.20
2023-05-18T00:43:12.802Z,8.10
2023-05-18T00:45:39.989Z,8.70
2023-05-18T00:48:07.488Z,9.40
2023-05-18T00:50:35.203Z,8.80
2023-05-18T00:53:02.373Z,9.20
2023-05-18T00:55:29.857Z,8.60
2023-05-18T00:57:57.329Z,8.30
2023-05-18T01:00:24.648Z,8.60
2023-05-18T01:02:53.178Z,7.70
2023-05-18T01:05:22.566Z,7.40
2023-05-18T01:07:50.739Z,8.10
2023-05-18T01:10:23.565Z,8.60
2023-05-18T01:12:57.676Z,9.20
2023-05-18T01:15:34.066Z,8.60
2023-05-18T01:18:10.625Z,8.20
2023-05-18T01:20:46.616Z,7.80
2023-05-18T01:23:45.288Z,7.80
2023-05-18T01:26:25.527Z,8.20
2023-05-18T01:28:53.715Z,8.50
2023-05-18T01:31:21.986Z,7.50
2023-05-18T01:33:49.201Z,7.80
2023-05-18T01:36:18.498Z,7.50
2023-05-18T01:38:46.407Z,7.90
2023-05-18T01:41:21.639Z,8.50
2023-05-18T01:43:54.470Z,8.30
2023-05-18T01:46:26.493Z,8.40
2023-05-18T01:49:00.668Z,8.50
2023-05-18T01:51:31.687Z,7.50
2023-05-18T01:54:08.070Z,7.60
2023-05-18T01:56:38.260Z,7.20
2023-05-18T01:59:06.388Z,7.70
2023-05-18T02:01:34.068Z,7.00
2023-05-18T02:04:01.377Z,6.20
2023-05-18T02:06:28.962Z,5.60
2023-05-18T02:08:56.273Z,5.80
2023-05-18T02:11:23.339Z,6.70
2023-05-18T02:13:51.163Z,7.10
2023-05-18T02:16:18.459Z,7.10
2023-05-18T02:18:45.918Z,7.40
2023-05-18T02:21:14.489Z,6.30
2023-05-18T02:23:42.163Z,4.90
2023-05-18T02:26:09.218Z,5.00
2023-05-18T02:28:40.271Z,4.90
2023-05-18T02:31:12.155Z,5.40
2023-05-18T02:33:42.627Z,4.40
2023-05-18T02:36:12.627Z,5.10
2023-05-18T02:38:40.876Z,5.00
2023-05-18T02:41:08.852Z,5.00
2023-05-18T02:43:36.606Z,4.50
2023-05-18T02:46:06.989Z,5.40
2023-05-18T02:48:34.465Z,4.80
2023-05-18T02:51:03.771Z,5.60
2023-05-18T02:53:32.636Z,5.70
2023-05-18T02:56:04.123Z,5.60
2023-05-18T02:58:59.143Z,5.70
2023-05-18T03:01:38.694Z,6.50
2023-05-18T03:04:05.985Z,5.70
2023-05-18T03:06:33.335Z,5.60
2023-05-18T03:09:00.795Z,5.90
2023-05-18T03:11:41.251Z,5.90
2023-05-18T03:14:09.021Z,5.50
2023-05-18T03:16:39.140Z,5.70
2023-05-18T03:19:11.153Z,5.40
2023-05-18T03:21:40.405Z,4.90
2023-05-18T03:24:07.661Z,4.90
2023-05-18T03:26:40.091Z,5.00
2023-05-18T03:29:07.446Z,5.70
2023-05-18T03:31:34.886Z,5.90
2023-05-18T03:34:02.774Z,6.50
2023-05-18T03:36:29.862Z,7.10
2023-05-18T03:38:57.077Z,9.40
2023-05-18T03:41:24.530Z,10.30
2023-05-18T03:43:53.035Z,8.20
2023-05-18T03:46:20.313Z,10.20
2023-05-18T03:48:47.529Z,8.60
2023-05-18T03:51:16.469Z,7.10
2023-05-18T03:53:43.767Z,7.00
2023-05-18T03:56:10.915Z,7.50
2023-05-18T03:58:38.384Z,7.80
2023-05-18T04:01:05.715Z,7.00
2023-05-18T04:03:35.924Z,7.20
2023-05-18T04:06:03.190Z,7.60
2023-05-18T04:08:30.955Z,6.80
2023-05-18T04:10:59.168Z,6.80
2023-05-18T04:13:26.490Z,7.00
2023-05-18T04:15:54.717Z,6.30
2023-05-18T04:18:22.833Z,6.10
2023-05-18T04:20:50.331Z,5.70
2023-05-18T04:23:18.160Z,6.20
2023-05-18T04:25:46.332Z,6.20
2023-05-18T04:28:13.381Z,5.30
2023-05-18T04:30:40.968Z,4.90
2023-05-18T04:33:10.317Z,5.40
2023-05-18T04:35:39.884Z,5.40
2023-05-18T04:38:07.460Z,4.70
2023-05-18T04:40:39.933Z,4.40
2023-05-18T04:43:10.866Z,4.80
2023-05-18T04:48:06.873Z,5.00
2023-05-18T04:50:34.058Z,5.90
2023-05-18T04:53:02.740Z,6.10
2023-05-18T04:55:31.533Z,6.90
2023-05-18T04:58:07.477Z,7.10
2023-05-18T05:00:34.841Z,6.90
2023-05-18T05:03:02.334Z,6.50
2023-05-18T05:05:30.392Z,6.50
2023-05-18T05:07:59.011Z,6.10
2023-05-18T05:10:26.237Z,5.80
2023-05-18T05:12:54.369Z,5.40
2023-05-18T05:15:21.527Z,5.80
2023-05-18T05:17:50.790Z,5.90
2023-05-18T05:20:19.401Z,5.60
2023-05-18T05:22:47.559Z,5.50
2023-05-18T05:25:17.489Z,5.50
2023-05-18T05:27:45.105Z,5.80
2023-05-18T05:30:13.029Z,5.00
2023-05-18T05:32:42.152Z,5.30
2023-05-18T05:35:09.881Z,5.30
2023-05-18T05:37:37.245Z,5.20
2023-05-18T05:40:06.807Z,5.40
2023-05-18T05:42:42.189Z,5.50
2023-05-18T05:45:09.962Z,4.80
2023-05-18T05:47:44.925Z,4.90
2023-05-18T05:50:13.034Z,5.10
2023-05-18T05:52:40.625Z,4.70
2023-05-18T05:55:08.185Z,4.80
2023-05-18T05:57:36.359Z,4.80
2023-05-18T06:00:05.053Z,4.90
2023-05-18T06:02:49.020Z,3.80
2023-05-18T06:05:21.196Z,3.80
2023-05-18T06:07:48.583Z,4.70
2023-05-18T06:10:15.972Z,4.40
2023-05-18T06:12:43.425Z,3.30
2023-05-18T06:15:11.402Z,4.00
2023-05-18T06:17:40.696Z,4.20
2023-05-18T06:20:08.972Z,4.00
2023-05-18T06:22:36.864Z,3.90
2023-05-18T06:25:36.377Z,4.10
2023-05-18T06:28:22.853Z,4.00
2023-05-18T06:30:56.148Z,3.80
2023-05-18T06:33:52.177Z,3.80
2023-05-18T06:36:19.735Z,3.40
2023-05-18T06:38:46.989Z,3.10
2023-05-18T06:41:16.347Z,3.60
2023-05-18T06:43:43.738Z,3.50
2023-05-18T06:46:23.714Z,3.70
2023-05-18T06:48:54.735Z,3.50
2023-05-18T06:51:22.307Z,3.60
2023-05-18T06:53:50.779Z,3.30
2023-05-18T06:56:19.032Z,3.90
2023-05-18T06:58:49.958Z,3.30
2023-05-18T07:01:20.848Z,3.50
2023-05-18T07:03:48.326Z,3.40
2023-05-18T07:06:15.699Z,3.20
2023-05-18T07:08:44.441Z,3.40
2023-05-18T07:11:11.584Z,2.80
2023-05-18T07:13:38.686Z,3.30
2023-05-18T07:16:06.740Z,2.90
2023-05-18T07:18:34.521Z,3.10
2023-05-18T07:21:01.620Z,3.40
2023-05-18T07:23:29.284Z,3.30
2023-05-18T07:25:57.815Z,2.70
2023-05-18T07:28:24.862Z,3.30
2023-05-18T07:30:51.925Z,3.10
2023-05-18T07:33:19.266Z,3.50
2023-05-18T07:35:46.472Z,4.10
2023-05-18T07:39:50.593Z,3.60
2023-05-18T07:42:17.740Z,3.60
2023-05-18T07:44:45.813Z,3.50
2023-05-18T07:47:13.165Z,3.40
2023-05-18T07:49:40.422Z,3.10
2023-05-18T07:52:08.697Z,3.20
2023-05-18T07:54:36.077Z,3.10
2023-05-18T07:57:04.366Z,3.00
2023-05-18T07:59:31.487Z,3.30
2023-05-18T08:02:00.369Z,11.40
2023-05-18T08:04:27.632Z,3.40
2023-05-18T08:06:55.705Z,3.40
2023-05-18T08:09:24.640Z,3.10
2023-05-18T08:11:53.683Z,3.60
2023-05-18T08:14:21.143Z,3.60
2023-05-18T08:16:48.316Z,3.60
2023-05-18T08:19:15.401Z,4.30
2023-05-18T08:21:42.592Z,4.00
2023-05-18T08:24:10.046Z,4.40
2023-05-18T08:26:37.352Z,3.30
2023-05-18T08:29:11.345Z,5.40
2023-05-18T08:31:39.346Z,5.40
2023-05-18T08:34:06.890Z,6.30
2023-05-18T08:36:34.744Z,6.00
2023-05-18T08:39:03.136Z,5.80
2023-05-18T08:41:31.617Z,5.70
2023-05-18T08:44:24.796Z,5.90
2023-05-18T08:46:52.419Z,5.70
2023-05-18T08:49:21.036Z,6.30
2023-05-18T08:51:58.218Z,5.50
2023-05-18T08:54:25.366Z,5.80
2023-05-18T08:56:53.329Z,4.90
2023-05-18T08:59:24.541Z,5.70
2023-05-18T09:01:52.393Z,5.30
2023-05-18T09:04:20.038Z,4.60
2023-05-18T09:06:52.173Z,4.90
2023-05-18T09:09:20.373Z,5.00
2023-05-18T09:11:47.916Z,5.10
2023-05-18T09:14:15.253Z,5.00
2023-05-18T09:16:42.321Z,5.20
2023-05-18T09:19:10.160Z,5.20
2023-05-18T09:21:37.339Z,4.40
2023-05-18T09:24:04.736Z,4.90
2023-05-18T09:26:31.942Z,4.40
2023-05-18T09:28:59.887Z,4.70
2023-05-18T09:31:27.979Z,4.70
2023-05-18T09:33:55.308Z,5.30
2023-05-18T09:36:26.528Z,4.70
2023-05-18T09:38:53.886Z,4.90
2023-05-18T09:41:22.205Z,5.00
2023-05-18T09:43:49.666Z,4.70
2023-05-18T09:46:18.022Z,5.10
2023-05-18T09:48:51.501Z,4.40
2023-05-18T09:51:18.967Z,4.60
2023-05-18T09:53:59.191Z,4.70
2023-05-18T09:56:27.300Z,4.70
2023-05-18T09:58:55.481Z,5.10
2023-05-18T10:01:23.500Z,4.40
2023-05-18T10:03:50.919Z,4.70
2023-05-18T10:06:20.388Z,4.70
2023-05-18T10:09:07.710Z,4.80
2023-05-18T10:11:35.454Z,5.00
2023-05-18T10:14:02.608Z,4.70
2023-05-18T10:16:29.816Z,5.30
2023-05-18T10:18:57.493Z,4.70
2023-05-18T10:21:25.022Z,4.30
2023-05-18T10:23:52.543Z,5.00
2023-05-18T10:26:20.407Z,4.60
2023-05-18T10:28:48.481Z,5.90
2023-05-18T10:31:17.183Z,4.60
2023-05-18T10:33:44.784Z,4.50
2023-05-18T10:36:12.122Z,5.50
2023-05-18T10:38:43.746Z,5.40
2023-05-18T10:41:10.806Z,5.30
2023-05-18T10:43:38.146Z,5.00
2023-05-18T10:46:05.709Z,5.10
2023-05-18T10:48:33.032Z,5.00
2023-05-18T10:51:00.457Z,5.30
2023-05-18T10:53:29.657Z,5.30
2023-05-18T10:55:57.212Z,5.20
2023-05-18T10:58:26.348Z,5.30
2023-05-18T11:00:59.287Z,5.60
2023-05-18T11:03:27.363Z,5.40
2023-05-18T11:06:11.190Z,5.00
2023-05-18T11:08:47.828Z,5.50
2023-05-18T11:11:17.236Z,5.80
2023-05-18T11:13:48.838Z,5.60
2023-05-18T11:16:23.173Z,5.10
2023-05-18T11:18:53.541Z,5.80
2023-05-18T11:21:36.646Z,5.40
2023-05-18T11:24:23.815Z,5.50
2023-05-18T11:27:04.226Z,5.70
2023-05-18T11:29:36.076Z,5.40
2023-05-18T11:44:40.450Z,5.90
2023-05-18T11:47:11.638Z,5.50
2023-05-18T11:52:20.953Z,5.20
2023-05-18T11:54:58.779Z,5.80
2023-05-18T11:57:35.524Z,5.70
2023-05-18T12:00:08.102Z,6.10
2023-05-18T12:02:47.333Z,5.30
2023-05-18T12:05:15.886Z,5.90
2023-05-18T12:07:43.132Z,5.80
2023-05-18T12:10:12.062Z,5.20
2023-05-18T12:12:42.116Z,6.00
2023-05-18T12:15:12.065Z,5.60
2023-05-18T12:17:50.263Z,6.00
2023-05-18T12:20:18.841Z,5.50
2023-05-18T12:22:47.594Z,5.40
2023-05-18T12:25:15.059Z,5.60
2023-05-18T12:27:48.013Z,5.80
2023-05-18T12:30:18.681Z,5.40
2023-05-18T12:35:14.383Z,5.20
2023-05-18T12:37:47.842Z,5.40
2023-05-18T12:40:17.252Z,5.50
2023-05-18T12:42:58.456Z,5.30
2023-05-18T12:45:33.669Z,5.10
2023-05-18T12:48:06.034Z,5.50
2023-05-18T12:50:33.341Z,5.30
2023-05-18T12:53:02.032Z,5.40
2023-05-18T12:55:31.341Z,5.10
2023-05-18T12:58:06.393Z,5.30
2023-05-18T13:00:37.326Z,5.10
2023-05-18T13:03:15.022Z,6.20
2023-05-18T13:05:45.050Z,5.20
2023-05-18T13:08:18.177Z,5.70
2023-05-18T13:10:45.805Z,5.50
2023-05-18T13:13:15.698Z,5.60
2023-05-18T13:15:43.345Z,5.50
2023-05-18T13:18:11.558Z,5.20
2023-05-18T13:20:43.691Z,5.00
2023-05-18T13:23:12.729Z,5.50
2023-05-18T13:25:40.581Z,5.50
2023-05-18T13:28:10.677Z,5.50
2023-05-18T13:30:38.680Z,5.00
2023-05-18T13:33:08.440Z,5.60
2023-05-18T13:35:40.514Z,5.20
2023-05-18T13:38:11.555Z,5.40
2023-05-18T13:40:38.727Z,5.70
2023-05-18T13:43:10.954Z,5.20
2023-05-18T13:45:40.048Z,6.10
2023-05-18T13:48:10.107Z,5.00
2023-05-18T13:50:39.470Z,5.90
2023-05-18T13:53:07.102Z,5.60
2023-05-18T13:55:37.390Z,5.50
2023-05-18T13:58:04.734Z,5.30
2023-05-18T14:00:34.509Z,6.00
2023-05-18T14:03:02.163Z,5.10
2023-05-18T14:05:29.771Z,5.20
2023-05-18T14:07:58.149Z,5.00
2023-05-18T14:10:25.512Z,5.30
2023-05-18T14:12:52.659Z,5.10
2023-05-18T14:15:19.711Z,5.70
2023-05-18T14:17:46.938Z,5.30
2023-05-18T14:20:23.419Z,5.00
2023-05-18T14:22:50.675Z,5.30
2023-05-18T14:25:17.932Z,5.10
2023-05-18T14:27:50.931Z,5.10
2023-05-18T14:30:18.182Z,4.80
2023-05-18T14:32:45.380Z,5.70
2023-05-18T14:35:13.089Z,4.80
2023-05-18T14:37:40.863Z,5.40
2023-05-18T14:40:09.002Z,4.80
2023-05-18T14:42:40.518Z,5.00
2023-05-18T14:45:10.183Z,4.40
2023-05-18T14:47:37.497Z,5.20
2023-05-18T14:50:05.726Z,4.90
2023-05-18T14:52:32.868Z,5.00
2023-05-18T14:55:00.218Z,5.30
2023-05-18T14:57:30.751Z,4.80
2023-05-18T14:59:58.515Z,4.70
2023-05-18T15:02:31.256Z,5.20
2023-05-18T15:04:58.557Z,4.50
2023-05-18T15:07:39.217Z,4.80
2023-05-18T15:10:09.750Z,5.10
2023-05-18T15:12:37.571Z,5.30
2023-05-18T15:15:14.179Z,4.90
2023-05-18T15:17:41.559Z,4.80
2023-05-18T15:20:09.515Z,4.60
2023-05-18T15:22:38.632Z,4.70
2023-05-18T15:25:07.657Z,4.40
2023-05-18T15:27:38.648Z,4.60
2023-05-18T15:30:11.742Z,4.60
2023-05-18T15:32:39.322Z,5.30
2023-05-18T15:35:07.660Z,5.50
2023-05-18T15:37:35.474Z,4.70
2023-05-18T15:40:03.027Z,4.60
2023-05-18T15:42:30.242Z,29.70
2023-05-18T15:44:57.856Z,4.70
2023-05-18T15:47:28.662Z,4.30
2023-05-18T15:49:57.766Z,4.40
2023-05-18T15:52:25.577Z,4.30
2023-05-18T15:54:52.732Z,4.40
2023-05-18T15:57:19.985Z,4.70
2023-05-18T15:59:47.330Z,4.10
2023-05-18T16:02:15.514Z,4.00
2023-05-18T16:04:42.909Z,4.00
2023-05-18T16:07:09.857Z,4.30
2023-05-18T16:09:36.766Z,4.40
2023-05-18T16:12:04.012Z,4.90
2023-05-18T16:14:31.450Z,4.70
2023-05-18T16:16:58.719Z,5.00
2023-05-18T16:19:32.563Z,5.30
2023-05-18T16:22:03.511Z,5.20
2023-05-18T16:27:01.835Z,4.80
2023-05-18T16:29:29.131Z,5.30
2023-05-18T16:31:56.740Z,5.10
2023-05-18T16:34:23.978Z,5.40
2023-05-18T16:36:51.239Z,6.00
2023-05-18T16:39:18.503Z,5.90
2023-05-18T16:41:45.854Z,5.50
2023-05-18T16:44:12.799Z,5.20
2023-05-18T16:46:39.989Z,5.50
2023-05-18T16:49:07.410Z,5.70
2023-05-18T16:51:34.346Z,6.10
2023-05-18T16:54:01.356Z,6.00
2023-05-18T16:56:29.924Z,5.80
2023-05-18T16:58:56.864Z,6.00
2023-05-18T17:01:28.524Z,5.80
2023-05-18T17:03:56.225Z,5.50
2023-05-18T17:06:23.380Z,5.20
2023-05-18T17:08:57.758Z,5.10
2023-05-18T17:11:27.190Z,5.20
2023-05-18T17:13:54.693Z,5.80
2023-05-18T17:16:22.475Z,4.80
2023-05-18T17:18:49.611Z,5.20
2023-05-18T17:21:16.948Z,5.50
2023-05-18T17:23:43.993Z,5.00
2023-05-18T17:26:11.115Z,5.40
2023-05-18T17:28:38.135Z,5.20
2023-05-18T17:31:06.746Z,4.80
2023-05-18T17:33:33.834Z,5.00
2023-05-18T17:36:00.882Z,5.20
2023-05-18T17:38:28.177Z,5.20
2023-05-18T17:40:55.217Z,4.60
2023-05-18T17:43:22.149Z,5.40
2023-05-18T17:45:49.096Z,5.40
2023-05-18T17:48:16.319Z,5.10
2023-05-18T17:50:45.646Z,5.40
2023-05-18T17:53:12.827Z,4.80
2023-05-18T17:55:39.815Z,5.20
2023-05-18T17:58:06.870Z,5.10
2023-05-18T18:00:33.976Z,4.80
2023-05-18T18:03:01.856Z,4.70
2023-05-18T18:05:29.103Z,4.70
2023-05-18T18:07:57.873Z,5.50
2023-05-18T18:10:24.961Z,5.10
2023-05-18T18:12:54.071Z,4.90
2023-05-18T18:15:23.790Z,5.50
2023-05-18T18:21:07.660Z,4.50
2023-05-18T18:23:35.556Z,4.80
2023-05-18T18:26:03.751Z,4.60
2023-05-18T18:28:33.274Z,4.50
2023-05-18T18:31:00.530Z,4.90
2023-05-18T18:33:27.574Z,5.10
2023-05-18T18:35:55.702Z,5.00
2023-05-18T18:38:22.865Z,5.60
2023-05-18T18:40:50.544Z,5.60
2023-05-18T18:43:17.709Z,5.40
2023-05-18T18:45:44.966Z,5.40
2023-05-18T18:48:12.131Z,5.40
2023-05-18T18:50:39.229Z,4.70
2023-05-18T18:53:06.308Z,5.20
2023-05-18T18:55:33.609Z,4.80
2023-05-18T18:58:01.736Z,4.90
2023-05-18T19:00:30.053Z,5.00
2023-05-18T19:02:59.723Z,4.80
2023-05-18T19:05:27.321Z,4.70
2023-05-18T19:07:56.352Z,4.80
2023-05-18T19:10:23.623Z,5.10
2023-05-18T19:12:52.157Z,4.70
2023-05-18T19:15:21.682Z,6.00
2023-05-18T19:17:54.666Z,5.10
2023-05-18T19:20:21.975Z,4.70
2023-05-18T19:22:49.627Z,5.30
2023-05-18T19:25:16.882Z,5.10
2023-05-18T19:27:43.923Z,4.70
2023-05-18T19:30:13.585Z,5.30
2023-05-18T19:32:41.096Z,4.90
2023-05-18T19:35:08.370Z,4.60
2023-05-18T19:41:49.872Z,5.20
2023-05-18T19:44:17.064Z,5.00
2023-05-18T19:46:44.611Z,5.30
2023-05-18T19:49:11.896Z,4.80
2023-05-18T19:51:39.019Z,5.50
2023-05-18T19:54:06.058Z,5.40
2023-05-18T19:56:34.566Z,5.90
2023-05-18T19:59:01.802Z,5.50
2023-05-18T20:04:50.736Z,4.90
2023-05-18T20:07:18.314Z,7.90
2023-05-18T20:09:45.345Z,7.80
2023-05-18T20:12:12.502Z,7.20
2023-05-18T20:14:39.694Z,7.40
2023-05-18T20:17:06.808Z,8.10
2023-05-18T20:19:34.059Z,9.00
2023-05-18T20:22:01.103Z,9.30
2023-05-18T20:24:28.385Z,10.70
2023-05-18T20:26:55.538Z,10.90
2023-05-18T20:29:22.594Z,10.70
2023-05-18T20:31:49.765Z,10.70
2023-05-18T20:34:46.358Z,11.10
2023-05-18T20:37:16.345Z,10.50
2023-05-18T20:39:51.020Z,11.10
2023-05-18T20:42:22.190Z,11.00
2023-05-18T20:44:51.633Z,11.40
2023-05-18T20:47:21.554Z,11.00
2023-05-18T20:49:48.897Z,11.90
2023-05-18T20:52:16.079Z,11.40
2023-05-18T20:54:43.705Z,12.60
2023-05-18T20:57:10.771Z,12.10
2023-05-18T20:59:37.813Z,12.70
2023-05-18T21:02:05.195Z,10.70
2023-05-18T21:04:32.215Z,8.70
2023-05-18T21:06:59.366Z,7.80
2023-05-18T21:09:26.424Z,7.20
2023-05-18T21:11:53.452Z,8.40
2023-05-18T21:14:20.783Z,7.10
2023-05-18T21:16:47.917Z,6.90
2023-05-18T21:19:15.084Z,7.50
2023-05-18T21:21:43.435Z,6.70
2023-05-18T21:24:10.892Z,7.00
2023-05-18T21:26:37.870Z,7.20
2023-05-18T21:29:05.329Z,6.20
2023-05-18T21:31:32.467Z,7.40
2023-05-18T21:33:59.588Z,7.30
2023-05-18T21:36:36.033Z,9.30
2023-05-18T21:39:04.343Z,10.30
2023-05-18T21:41:31.905Z,12.10
2023-05-18T21:43:59.069Z,14.30
2023-05-18T21:46:26.198Z,14.40
2023-05-18T21:48:53.512Z,13.30
2023-05-18T21:51:20.657Z,14.20
2023-05-18T21:53:49.269Z,13.80
2023-05-18T21:56:17.015Z,16.30
2023-05-18T21:58:44.033Z,15.60
2023-05-18T22:01:11.219Z,16.70
2023-05-18T22:03:38.742Z,16.90
2023-05-18T22:06:05.899Z,17.60
2023-05-18T22:08:32.945Z,19.70
2023-05-18T22:11:00.239Z,21.00
2023-05-18T22:13:27.596Z,19.80
2023-05-18T22:15:54.589Z,21.70
2023-05-18T22:18:24.004Z,20.60
2023-05-18T22:20:51.154Z,21.40
2023-05-18T22:23:18.248Z,21.50
2023-05-18T22:25:46.020Z,20.70
2023-05-18T22:28:13.178Z,21.60
2023-05-18T22:30:40.219Z,21.10
2023-05-18T22:33:07.267Z,20.40
2023-05-18T22:35:37.033Z,19.20
2023-05-18T22:38:03.978Z,19.60
2023-05-18T22:40:31.545Z,20.70
2023-05-18T22:42:58.952Z,20.90
2023-05-18T22:45:26.020Z,19.70
2023-05-18T22:47:55.106Z,18.90
2023-05-18T22:50:22.195Z,19.90
2023-05-18T22:52:49.783Z,19.70
2023-05-18T22:55:16.927Z,20.50
2023-05-18T22:57:44.744Z,19.50
2023-05-18T23:00:14.255Z,19.10
2023-05-18T23:02:41.817Z,19.90
